Airfield :
LOGIN :

Register | Disclaimer

   EN    FR    IT 

 










Legend :    VFR   Marginal VFR   IFR   Intensive IFR   Very Intensive IFR
Visi :
Ceiling :
>= 8 km
>= 3000ft
5 to 8 km
1000 to 3000 ft
1500m to 5 km
500 to 1000 ft
800 to 1500m
200 to 500 ft
< 800m
< 200 ft
Symbols :   Thunderstorms  Fog  Heavy snow  Heavy precipitations  Wind > 20 kt
SIGMETs :     Misc.  Thunderstorms  Icing  Turbulence  Mountain Waves  Volcanic Ashes






- Airport Elevation : 96 ft
- IATA code : REG


LICR - Reggio Calabria

CURRENT METAR :
  • 230050Z AUTO 20008KT 9999 FEW022/// BKN094/// 20/17 Q1019

EXPIRED METARs :
  • 230020Z AUTO 18005KT 9999 FEW022/// BKN100/// BKN190/// 19/16 Q1020
  • 222350Z AUTO 17006KT 9999 -DZ FEW022/// BKN110/// BKN190/// 20/16 Q1020 RERA
  • 222320Z AUTO 16008KT 6000 +RA FEW018/// BKN044/// OVC100/// 19/17 Q1020
  • 222250Z AUTO 16006KT 9999 -RA FEW039/// BKN098/// BKN180/// 21/18 Q1020
  • 222220Z AUTO 16005KT 9999 -RA FEW019/// BKN042/// BKN190/// 20/18 Q1020 RERA

TAF TAF LICR
Valid from the 23 at 00:00 until the 24 at 00:00 UTC


222300Z 2300/2324 20010KT 9999 SCT030
TEMPO 2300/2306 TSRA
TEMPO 2310/2313 SHRA



MET'MAP, your aeronautical weather chart ! - Copyright ORBIFLY December 2007 - Disclaimer

ORBIFLY MET'MAP TEAM :

Programming & Development : Alexandra Zaïnal
Concept & original design : Baudouin d'Aumeries
Assistance for programming : Marc-Olivier Méhu
Technical & hardware support : Manuel Goepfert

Contact : metmap@orbifly.com




SOURCES & CREDITS :

   NOAA